sensor_id;sensor_type;location;lat;lon;timestamp;temperature;humidity
52787;DHT22;38661;53.152;5.846;2023-04-06T00:01:42;4.00;69.10
52787;DHT22;38661;53.152;5.846;2023-04-06T00:04:08;4.00;69.10
52787;DHT22;38661;53.152;5.846;2023-04-06T00:06:34;4.00;69.00
52787;DHT22;38661;53.152;5.846;2023-04-06T00:09:00;3.90;68.90
52787;DHT22;38661;53.152;5.846;2023-04-06T00:11:26;4.00;68.80
52787;DHT22;38661;53.152;5.846;2023-04-06T00:13:52;3.90;69.00
52787;DHT22;38661;53.152;5.846;2023-04-06T00:16:18;3.90;69.00
52787;DHT22;38661;53.152;5.846;2023-04-06T00:18:44;3.90;69.10
52787;DHT22;38661;53.152;5.846;2023-04-06T00:21:14;3.80;69.30
52787;DHT22;38661;53.152;5.846;2023-04-06T00:23:40;3.80;69.30
52787;DHT22;38661;53.152;5.846;2023-04-06T00:26:07;3.80;69.30
52787;DHT22;38661;53.152;5.846;2023-04-06T00:28:33;3.80;69.40
52787;DHT22;38661;53.152;5.846;2023-04-06T00:30:59;3.70;69.60
52787;DHT22;38661;53.152;5.846;2023-04-06T00:33:25;3.60;69.90
52787;DHT22;38661;53.152;5.846;2023-04-06T00:35:51;3.60;70.00
52787;DHT22;38661;53.152;5.846;2023-04-06T00:38:17;3.60;70.30
52787;DHT22;38661;53.152;5.846;2023-04-06T00:40:43;3.50;70.40
52787;DHT22;38661;53.152;5.846;2023-04-06T00:43:13;3.50;70.80
52787;DHT22;38661;53.152;5.846;2023-04-06T00:45:40;3.50;70.80
52787;DHT22;38661;53.152;5.846;2023-04-06T00:48:06;3.50;70.60
52787;DHT22;38661;53.152;5.846;2023-04-06T00:50:33;3.50;70.80
52787;DHT22;38661;53.152;5.846;2023-04-06T00:52:59;3.50;70.70
52787;DHT22;38661;53.152;5.846;2023-04-06T00:55:29;3.50;70.80
52787;DHT22;38661;53.152;5.846;2023-04-06T00:57:57;3.50;70.40
52787;DHT22;38661;53.152;5.846;2023-04-06T01:00:24;3.50;70.70
52787;DHT22;38661;53.152;5.846;2023-04-06T01:02:50;3.50;70.70
52787;DHT22;38661;53.152;5.846;2023-04-06T01:05:15;3.40;71.10
52787;DHT22;38661;53.152;5.846;2023-04-06T01:07:41;3.40;71.10
52787;DHT22;38661;53.152;5.846;2023-04-06T01:10:07;3.40;71.30
52787;DHT22;38661;53.152;5.846;2023-04-06T01:12:33;3.30;71.40
52787;DHT22;38661;53.152;5.846;2023-04-06T01:14:59;3.30;71.50
52787;DHT22;38661;53.152;5.846;2023-04-06T01:17:25;3.30;71.40
52787;DHT22;38661;53.152;5.846;2023-04-06T01:19:51;3.30;71.30
52787;DHT22;38661;53.152;5.846;2023-04-06T01:22:19;3.30;71.40
52787;DHT22;38661;53.152;5.846;2023-04-06T01:24:45;3.30;71.70
52787;DHT22;38661;53.152;5.846;2023-04-06T01:27:11;3.30;71.50
52787;DHT22;38661;53.152;5.846;2023-04-06T01:29:37;3.30;71.40
52787;DHT22;38661;53.152;5.846;2023-04-06T01:32:06;3.30;71.50
52787;DHT22;38661;53.152;5.846;2023-04-06T01:34:32;3.30;71.30
52787;DHT22;38661;53.152;5.846;2023-04-06T01:36:58;3.20;71.50
52787;DHT22;38661;53.152;5.846;2023-04-06T01:39:24;3.20;71.50
52787;DHT22;38661;53.152;5.846;2023-04-06T01:41:50;3.20;71.50
52787;DHT22;38661;53.152;5.846;2023-04-06T01:44:17;3.20;71.10
52787;DHT22;38661;53.152;5.846;2023-04-06T01:46:43;3.10;71.40
52787;DHT22;38661;53.152;5.846;2023-04-06T01:49:09;3.20;71.30
52787;DHT22;38661;53.152;5.846;2023-04-06T01:51:34;3.10;71.30
52787;DHT22;38661;53.152;5.846;2023-04-06T01:54:00;3.10;71.60
52787;DHT22;38661;53.152;5.846;2023-04-06T01:56:26;3.10;71.70
52787;DHT22;38661;53.152;5.846;2023-04-06T01:58:52;3.10;71.60
52787;DHT22;38661;53.152;5.846;2023-04-06T02:01:17;3.10;71.80
52787;DHT22;38661;53.152;5.846;2023-04-06T02:03:43;3.10;72.10
52787;DHT22;38661;53.152;5.846;2023-04-06T02:06:09;3.00;72.40
52787;DHT22;38661;53.152;5.846;2023-04-06T02:08:34;3.00;72.40
52787;DHT22;38661;53.152;5.846;2023-04-06T02:11:00;3.00;72.50
52787;DHT22;38661;53.152;5.846;2023-04-06T02:13:26;3.00;72.70
52787;DHT22;38661;53.152;5.846;2023-04-06T02:15:52;3.00;72.80
52787;DHT22;38661;53.152;5.846;2023-04-06T02:18:18;2.90;73.30
52787;DHT22;38661;53.152;5.846;2023-04-06T02:20:44;2.90;73.10
52787;DHT22;38661;53.152;5.846;2023-04-06T02:23:10;3.00;72.60
52787;DHT22;38661;53.152;5.846;2023-04-06T02:25:36;2.90;72.80
52787;DHT22;38661;53.152;5.846;2023-04-06T02:28:02;2.90;72.70
52787;DHT22;38661;53.152;5.846;2023-04-06T02:30:28;2.90;72.80
52787;DHT22;38661;53.152;5.846;2023-04-06T02:32:54;2.90;72.60
52787;DHT22;38661;53.152;5.846;2023-04-06T02:35:20;2.90;72.40
52787;DHT22;38661;53.152;5.846;2023-04-06T02:37:45;2.90;72.10
52787;DHT22;38661;53.152;5.846;2023-04-06T02:40:11;3.00;72.10
52787;DHT22;38661;53.152;5.846;2023-04-06T02:42:37;2.90;72.20
52787;DHT22;38661;53.152;5.846;2023-04-06T02:45:03;2.90;72.10
52787;DHT22;38661;53.152;5.846;2023-04-06T02:47:29;2.90;72.10
52787;DHT22;38661;53.152;5.846;2023-04-06T02:49:55;2.80;72.30
52787;DHT22;38661;53.152;5.846;2023-04-06T02:52:20;2.80;72.60
52787;DHT22;38661;53.152;5.846;2023-04-06T02:54:46;2.70;72.50
52787;DHT22;38661;53.152;5.846;2023-04-06T02:57:12;2.60;72.90
52787;DHT22;38661;53.152;5.846;2023-04-06T02:59:37;2.60;72.60
52787;DHT22;38661;53.152;5.846;2023-04-06T03:02:03;2.60;73.00
52787;DHT22;38661;53.152;5.846;2023-04-06T03:04:29;2.60;73.20
52787;DHT22;38661;53.152;5.846;2023-04-06T03:06:55;2.60;73.10
52787;DHT22;38661;53.152;5.846;2023-04-06T03:09:20;2.50;73.20
52787;DHT22;38661;53.152;5.846;2023-04-06T03:11:46;2.50;73.10
52787;DHT22;38661;53.152;5.846;2023-04-06T03:14:12;2.60;73.20
52787;DHT22;38661;53.152;5.846;2023-04-06T03:16:38;2.60;72.80
52787;DHT22;38661;53.152;5.846;2023-04-06T03:19:04;2.60;72.80
52787;DHT22;38661;53.152;5.846;2023-04-06T03:21:29;2.60;73.30
52787;DHT22;38661;53.152;5.846;2023-04-06T03:23:55;2.50;73.50
52787;DHT22;38661;53.152;5.846;2023-04-06T03:26:21;2.40;73.70
52787;DHT22;38661;53.152;5.846;2023-04-06T03:28:47;2.30;73.80
52787;DHT22;38661;53.152;5.846;2023-04-06T03:31:13;2.20;74.30
52787;DHT22;38661;53.152;5.846;2023-04-06T03:33:39;2.20;74.30
52787;DHT22;38661;53.152;5.846;2023-04-06T03:36:05;2.10;74.60
52787;DHT22;38661;53.152;5.846;2023-04-06T03:38:32;2.10;74.70
52787;DHT22;38661;53.152;5.846;2023-04-06T03:40:58;2.10;74.80
52787;DHT22;38661;53.152;5.846;2023-04-06T03:43:23;2.00;75.00
52787;DHT22;38661;53.152;5.846;2023-04-06T03:45:49;2.00;75.00
52787;DHT22;38661;53.152;5.846;2023-04-06T03:48:15;1.90;75.10
52787;DHT22;38661;53.152;5.846;2023-04-06T03:50:41;1.90;75.20
52787;DHT22;38661;53.152;5.846;2023-04-06T03:53:07;1.90;75.20
52787;DHT22;38661;53.152;5.846;2023-04-06T03:55:32;2.00;75.30
52787;DHT22;38661;53.152;5.846;2023-04-06T03:57:58;1.90;75.20
52787;DHT22;38661;53.152;5.846;2023-04-06T04:00:24;2.00;75.10
52787;DHT22;38661;53.152;5.846;2023-04-06T04:02:50;2.00;74.40
52787;DHT22;38661;53.152;5.846;2023-04-06T04:05:16;2.10;74.70
52787;DHT22;38661;53.152;5.846;2023-04-06T04:07:41;2.00;74.70
52787;DHT22;38661;53.152;5.846;2023-04-06T04:10:07;2.10;74.50
52787;DHT22;38661;53.152;5.846;2023-04-06T04:12:33;2.10;74.60
52787;DHT22;38661;53.152;5.846;2023-04-06T04:14:59;2.00;74.80
52787;DHT22;38661;53.152;5.846;2023-04-06T04:17:25;2.00;75.00
52787;DHT22;38661;53.152;5.846;2023-04-06T04:19:51;2.00;74.60
52787;DHT22;38661;53.152;5.846;2023-04-06T04:22:16;1.90;75.00
52787;DHT22;38661;53.152;5.846;2023-04-06T04:24:42;1.90;75.10
52787;DHT22;38661;53.152;5.846;2023-04-06T04:27:08;1.90;75.30
52787;DHT22;38661;53.152;5.846;2023-04-06T04:29:34;1.90;75.40
52787;DHT22;38661;53.152;5.846;2023-04-06T04:31:59;1.90;74.90
52787;DHT22;38661;53.152;5.846;2023-04-06T04:34:25;1.90;75.00
52787;DHT22;38661;53.152;5.846;2023-04-06T04:36:51;1.80;75.20
52787;DHT22;38661;53.152;5.846;2023-04-06T04:39:17;1.80;75.60
52787;DHT22;38661;53.152;5.846;2023-04-06T04:41:43;1.70;75.90
52787;DHT22;38661;53.152;5.846;2023-04-06T04:44:09;1.70;76.00
52787;DHT22;38661;53.152;5.846;2023-04-06T04:46:34;1.70;76.10
52787;DHT22;38661;53.152;5.846;2023-04-06T04:49:00;1.80;76.40
52787;DHT22;38661;53.152;5.846;2023-04-06T04:51:26;1.80;76.00
52787;DHT22;38661;53.152;5.846;2023-04-06T04:53:51;1.80;76.50
52787;DHT22;38661;53.152;5.846;2023-04-06T04:56:17;1.80;76.70
52787;DHT22;38661;53.152;5.846;2023-04-06T04:58:43;1.80;76.90
52787;DHT22;38661;53.152;5.846;2023-04-06T05:01:09;1.80;76.90
52787;DHT22;38661;53.152;5.846;2023-04-06T05:03:36;1.80;77.10
52787;DHT22;38661;53.152;5.846;2023-04-06T05:06:04;1.80;77.30
52787;DHT22;38661;53.152;5.846;2023-04-06T05:08:31;1.80;77.20
52787;DHT22;38661;53.152;5.846;2023-04-06T05:10:56;1.80;77.50
52787;DHT22;38661;53.152;5.846;2023-04-06T05:13:22;1.80;77.60
52787;DHT22;38661;53.152;5.846;2023-04-06T05:15:48;1.80;77.60
52787;DHT22;38661;53.152;5.846;2023-04-06T05:18:14;1.80;77.50
52787;DHT22;38661;53.152;5.846;2023-04-06T05:20:40;1.80;77.60
52787;DHT22;38661;53.152;5.846;2023-04-06T05:23:06;1.80;77.50
52787;DHT22;38661;53.152;5.846;2023-04-06T05:25:32;1.90;77.50
52787;DHT22;38661;53.152;5.846;2023-04-06T05:27:58;1.90;77.20
52787;DHT22;38661;53.152;5.846;2023-04-06T05:30:24;1.90;77.40
52787;DHT22;38661;53.152;5.846;2023-04-06T05:32:50;1.90;77.50
52787;DHT22;38661;53.152;5.846;2023-04-06T05:35:16;1.80;77.70
52787;DHT22;38661;53.152;5.846;2023-04-06T05:37:43;1.90;77.70
52787;DHT22;38661;53.152;5.846;2023-04-06T05:40:09;1.80;77.50
52787;DHT22;38661;53.152;5.846;2023-04-06T05:42:42;1.90;77.70
52787;DHT22;38661;53.152;5.846;2023-04-06T05:45:09;2.00;77.20
52787;DHT22;38661;53.152;5.846;2023-04-06T05:47:36;2.00;77.60
52787;DHT22;38661;53.152;5.846;2023-04-06T05:50:02;2.00;77.50
52787;DHT22;38661;53.152;5.846;2023-04-06T05:52:28;2.10;77.30
52787;DHT22;38661;53.152;5.846;2023-04-06T05:54:54;2.10;77.20
52787;DHT22;38661;53.152;5.846;2023-04-06T05:57:20;2.20;76.70
52787;DHT22;38661;53.152;5.846;2023-04-06T05:59:46;2.20;76.50
52787;DHT22;38661;53.152;5.846;2023-04-06T06:02:11;2.30;76.40
52787;DHT22;38661;53.152;5.846;2023-04-06T06:04:37;2.40;76.50
52787;DHT22;38661;53.152;5.846;2023-04-06T06:07:03;2.40;76.50
52787;DHT22;38661;53.152;5.846;2023-04-06T06:09:29;2.50;76.40
52787;DHT22;38661;53.152;5.846;2023-04-06T06:11:55;2.50;76.60
52787;DHT22;38661;53.152;5.846;2023-04-06T06:14:20;2.60;76.30
52787;DHT22;38661;53.152;5.846;2023-04-06T06:16:47;2.60;76.80
52787;DHT22;38661;53.152;5.846;2023-04-06T06:19:13;2.60;76.50
52787;DHT22;38661;53.152;5.846;2023-04-06T06:21:39;2.70;76.30
52787;DHT22;38661;53.152;5.846;2023-04-06T06:24:05;2.80;76.00
52787;DHT22;38661;53.152;5.846;2023-04-06T06:26:31;2.80;75.90
52787;DHT22;38661;53.152;5.846;2023-04-06T06:28:57;3.00;75.60
52787;DHT22;38661;53.152;5.846;2023-04-06T06:31:22;3.10;75.60
52787;DHT22;38661;53.152;5.846;2023-04-06T06:33:49;3.10;75.40
52787;DHT22;38661;53.152;5.846;2023-04-06T06:36:17;3.20;75.50
52787;DHT22;38661;53.152;5.846;2023-04-06T06:38:44;3.20;75.40
52787;DHT22;38661;53.152;5.846;2023-04-06T06:41:10;3.30;75.40
52787;DHT22;38661;53.152;5.846;2023-04-06T06:43:36;3.30;76.00
52787;DHT22;38661;53.152;5.846;2023-04-06T06:46:03;3.40;75.50
52787;DHT22;38661;53.152;5.846;2023-04-06T06:48:29;3.50;75.10
52787;DHT22;38661;53.152;5.846;2023-04-06T06:50:55;3.60;74.80
52787;DHT22;38661;53.152;5.846;2023-04-06T06:53:21;3.60;74.60
52787;DHT22;38661;53.152;5.846;2023-04-06T06:55:47;3.70;74.60
52787;DHT22;38661;53.152;5.846;2023-04-06T06:58:14;3.80;74.40
52787;DHT22;38661;53.152;5.846;2023-04-06T07:00:40;4.00;74.20
52787;DHT22;38661;53.152;5.846;2023-04-06T07:03:06;4.10;73.40
52787;DHT22;38661;53.152;5.846;2023-04-06T07:05:32;4.30;73.00
52787;DHT22;38661;53.152;5.846;2023-04-06T07:07:58;4.40;72.80
52787;DHT22;38661;53.152;5.846;2023-04-06T07:10:24;4.50;72.30
52787;DHT22;38661;53.152;5.846;2023-04-06T07:12:49;4.60;72.40
52787;DHT22;38661;53.152;5.846;2023-04-06T07:15:16;4.70;72.40
52787;DHT22;38661;53.152;5.846;2023-04-06T07:17:42;4.80;71.80
52787;DHT22;38661;53.152;5.846;2023-04-06T07:20:11;4.80;71.40
52787;DHT22;38661;53.152;5.846;2023-04-06T07:22:38;4.80;71.80
52787;DHT22;38661;53.152;5.846;2023-04-06T07:25:04;4.90;71.80
52787;DHT22;38661;53.152;5.846;2023-04-06T07:27:30;4.90;71.80
52787;DHT22;38661;53.152;5.846;2023-04-06T07:29:55;5.00;72.00
52787;DHT22;38661;53.152;5.846;2023-04-06T07:32:21;5.00;72.10
52787;DHT22;38661;53.152;5.846;2023-04-06T07:34:47;5.10;72.70
52787;DHT22;38661;53.152;5.846;2023-04-06T07:37:13;5.10;72.90
52787;DHT22;38661;53.152;5.846;2023-04-06T07:39:38;5.20;73.30
52787;DHT22;38661;53.152;5.846;2023-04-06T07:42:04;5.30;72.70
52787;DHT22;38661;53.152;5.846;2023-04-06T07:44:30;5.40;72.40
52787;DHT22;38661;53.152;5.846;2023-04-06T07:46:56;5.60;72.20
52787;DHT22;38661;53.152;5.846;2023-04-06T07:49:22;5.60;71.70
52787;DHT22;38661;53.152;5.846;2023-04-06T07:51:48;5.70;71.40
52787;DHT22;38661;53.152;5.846;2023-04-06T07:54:14;5.80;70.80
52787;DHT22;38661;53.152;5.846;2023-04-06T07:56:40;5.80;70.80
52787;DHT22;38661;53.152;5.846;2023-04-06T07:59:06;5.90;70.50
52787;DHT22;38661;53.152;5.846;2023-04-06T08:01:32;6.00;70.70
52787;DHT22;38661;53.152;5.846;2023-04-06T08:03:58;6.10;71.10
52787;DHT22;38661;53.152;5.846;2023-04-06T08:06:24;6.30;70.60
52787;DHT22;38661;53.152;5.846;2023-04-06T08:08:50;6.40;70.60
52787;DHT22;38661;53.152;5.846;2023-04-06T08:11:16;6.60;69.50
52787;DHT22;38661;53.152;5.846;2023-04-06T08:13:42;6.80;68.20
52787;DHT22;38661;53.152;5.846;2023-04-06T08:16:08;6.90;68.10
52787;DHT22;38661;53.152;5.846;2023-04-06T08:18:33;7.10;68.10
52787;DHT22;38661;53.152;5.846;2023-04-06T08:20:59;7.20;67.10
52787;DHT22;38661;53.152;5.846;2023-04-06T08:23:25;7.30;65.40
52787;DHT22;38661;53.152;5.846;2023-04-06T08:25:51;7.50;66.40
52787;DHT22;38661;53.152;5.846;2023-04-06T08:28:20;7.60;66.70
52787;DHT22;38661;53.152;5.846;2023-04-06T08:30:46;7.80;65.90
52787;DHT22;38661;53.152;5.846;2023-04-06T08:33:12;8.10;65.10
52787;DHT22;38661;53.152;5.846;2023-04-06T08:35:38;8.20;65.20
52787;DHT22;38661;53.152;5.846;2023-04-06T08:38:03;8.30;64.00
52787;DHT22;38661;53.152;5.846;2023-04-06T08:40:30;8.40;64.10
52787;DHT22;38661;53.152;5.846;2023-04-06T08:43:02;8.40;64.60
52787;DHT22;38661;53.152;5.846;2023-04-06T08:45:29;8.50;63.40
52787;DHT22;38661;53.152;5.846;2023-04-06T08:47:57;8.60;64.00
52787;DHT22;38661;53.152;5.846;2023-04-06T08:50:29;8.60;62.30
52787;DHT22;38661;53.152;5.846;2023-04-06T08:52:55;8.70;63.10
52787;DHT22;38661;53.152;5.846;2023-04-06T08:55:22;8.70;63.20
52787;DHT22;38661;53.152;5.846;2023-04-06T08:57:48;8.70;63.80
52787;DHT22;38661;53.152;5.846;2023-04-06T09:00:14;8.80;63.80
52787;DHT22;38661;53.152;5.846;2023-04-06T09:02:43;8.80;62.60
52787;DHT22;38661;53.152;5.846;2023-04-06T09:05:10;8.90;63.80
52787;DHT22;38661;53.152;5.846;2023-04-06T09:07:37;9.00;62.90
52787;DHT22;38661;53.152;5.846;2023-04-06T09:10:04;9.00;63.50
52787;DHT22;38661;53.152;5.846;2023-04-06T09:12:32;9.20;62.60
52787;DHT22;38661;53.152;5.846;2023-04-06T09:14:59;9.30;61.00
52787;DHT22;38661;53.152;5.846;2023-04-06T09:17:32;9.30;60.00
52787;DHT22;38661;53.152;5.846;2023-04-06T09:20:02;9.40;59.60
52787;DHT22;38661;53.152;5.846;2023-04-06T09:22:40;9.40;60.00
52787;DHT22;38661;53.152;5.846;2023-04-06T09:25:08;9.50;58.60
52787;DHT22;38661;53.152;5.846;2023-04-06T09:27:37;9.50;59.50
52787;DHT22;38661;53.152;5.846;2023-04-06T09:30:12;9.60;58.00
52787;DHT22;38661;53.152;5.846;2023-04-06T09:32:46;9.70;59.00
52787;DHT22;38661;53.152;5.846;2023-04-06T09:35:13;9.90;58.80
52787;DHT22;38661;53.152;5.846;2023-04-06T09:37:39;10.00;57.90
52787;DHT22;38661;53.152;5.846;2023-04-06T09:40:06;10.10;58.00
52787;DHT22;38661;53.152;5.846;2023-04-06T09:42:35;10.10;57.40
52787;DHT22;38661;53.152;5.846;2023-04-06T09:45:02;10.20;56.90
52787;DHT22;38661;53.152;5.846;2023-04-06T09:47:30;10.10;56.00
52787;DHT22;38661;53.152;5.846;2023-04-06T09:50:00;10.20;55.60
52787;DHT22;38661;53.152;5.846;2023-04-06T09:52:33;10.20;55.30
52787;DHT22;38661;53.152;5.846;2023-04-06T09:55:04;10.40;55.70
52787;DHT22;38661;53.152;5.846;2023-04-06T09:57:46;10.40;54.90
52787;DHT22;38661;53.152;5.846;2023-04-06T10:00:14;10.40;53.90
52787;DHT22;38661;53.152;5.846;2023-04-06T10:05:37;10.50;54.70
52787;DHT22;38661;53.152;5.846;2023-04-06T10:08:09;10.60;55.10
52787;DHT22;38661;53.152;5.846;2023-04-06T10:10:36;10.60;54.70
52787;DHT22;38661;53.152;5.846;2023-04-06T10:13:02;10.70;53.60
52787;DHT22;38661;53.152;5.846;2023-04-06T10:15:29;10.60;52.70
52787;DHT22;38661;53.152;5.846;2023-04-06T10:17:59;10.50;53.10
52787;DHT22;38661;53.152;5.846;2023-04-06T10:20:33;10.50;52.30
52787;DHT22;38661;53.152;5.846;2023-04-06T10:23:03;10.50;53.20
52787;DHT22;38661;53.152;5.846;2023-04-06T10:25:31;10.50;53.50
52787;DHT22;38661;53.152;5.846;2023-04-06T10:28:04;10.60;54.10
52787;DHT22;38661;53.152;5.846;2023-04-06T10:30:31;10.60;53.10
52787;DHT22;38661;53.152;5.846;2023-04-06T10:32:57;10.60;52.70
52787;DHT22;38661;53.152;5.846;2023-04-06T10:35:23;10.70;54.10
52787;DHT22;38661;53.152;5.846;2023-04-06T10:38:00;10.80;53.50
52787;DHT22;38661;53.152;5.846;2023-04-06T10:40:26;10.90;52.80
52787;DHT22;38661;53.152;5.846;2023-04-06T10:43:06;11.00;53.00
52787;DHT22;38661;53.152;5.846;2023-04-06T10:45:32;10.90;52.80
52787;DHT22;38661;53.152;5.846;2023-04-06T10:47:57;11.00;53.50
52787;DHT22;38661;53.152;5.846;2023-04-06T10:50:24;11.00;54.50
52787;DHT22;38661;53.152;5.846;2023-04-06T10:53:01;11.10;53.90
52787;DHT22;38661;53.152;5.846;2023-04-06T10:55:28;11.10;53.80
52787;DHT22;38661;53.152;5.846;2023-04-06T10:57:54;11.10;54.10
52787;DHT22;38661;53.152;5.846;2023-04-06T11:00:20;11.10;54.20
52787;DHT22;38661;53.152;5.846;2023-04-06T11:02:46;11.10;53.70
52787;DHT22;38661;53.152;5.846;2023-04-06T11:05:14;11.00;53.30
52787;DHT22;38661;53.152;5.846;2023-04-06T11:07:40;11.00;54.20
52787;DHT22;38661;53.152;5.846;2023-04-06T11:10:07;11.10;55.10
52787;DHT22;38661;53.152;5.846;2023-04-06T11:12:33;11.20;53.80
52787;DHT22;38661;53.152;5.846;2023-04-06T11:15:01;11.20;52.80
52787;DHT22;38661;53.152;5.846;2023-04-06T11:17:35;11.30;54.10
52787;DHT22;38661;53.152;5.846;2023-04-06T11:20:03;11.40;55.00
52787;DHT22;38661;53.152;5.846;2023-04-06T11:22:30;11.50;54.70
52787;DHT22;38661;53.152;5.846;2023-04-06T11:25:07;11.40;53.50
52787;DHT22;38661;53.152;5.846;2023-04-06T11:27:36;11.50;54.20
52787;DHT22;38661;53.152;5.846;2023-04-06T11:30:02;11.50;53.90
52787;DHT22;38661;53.152;5.846;2023-04-06T11:32:28;11.50;54.10
52787;DHT22;38661;53.152;5.846;2023-04-06T11:34:54;11.50;53.80
52787;DHT22;38661;53.152;5.846;2023-04-06T11:37:26;11.50;53.60
52787;DHT22;38661;53.152;5.846;2023-04-06T11:39:55;11.50;54.20
52787;DHT22;38661;53.152;5.846;2023-04-06T11:42:29;11.60;54.30
52787;DHT22;38661;53.152;5.846;2023-04-06T11:44:58;11.60;54.40
52787;DHT22;38661;53.152;5.846;2023-04-06T11:47:29;11.50;54.10
52787;DHT22;38661;53.152;5.846;2023-04-06T11:49:56;11.50;55.00
52787;DHT22;38661;53.152;5.846;2023-04-06T11:52:30;11.60;55.50
52787;DHT22;38661;53.152;5.846;2023-04-06T11:54:56;11.60;55.60
52787;DHT22;38661;53.152;5.846;2023-04-06T11:57:23;11.70;55.70
52787;DHT22;38661;53.152;5.846;2023-04-06T11:59:52;11.80;56.30
52787;DHT22;38661;53.152;5.846;2023-04-06T12:02:18;11.90;56.20
52787;DHT22;38661;53.152;5.846;2023-04-06T12:04:44;11.90;55.70
52787;DHT22;38661;53.152;5.846;2023-04-06T12:07:10;11.90;54.90
52787;DHT22;38661;53.152;5.846;2023-04-06T12:09:35;11.90;56.10
52787;DHT22;38661;53.152;5.846;2023-04-06T12:12:02;11.90;55.90
52787;DHT22;38661;53.152;5.846;2023-04-06T12:14:28;11.80;55.90
52787;DHT22;38661;53.152;5.846;2023-04-06T12:16:56;11.70;56.00
52787;DHT22;38661;53.152;5.846;2023-04-06T12:19:23;11.70;56.80
52787;DHT22;38661;53.152;5.846;2023-04-06T12:21:52;11.60;56.90
52787;DHT22;38661;53.152;5.846;2023-04-06T12:24:18;11.50;58.20
52787;DHT22;38661;53.152;5.846;2023-04-06T12:26:44;11.40;58.70
52787;DHT22;38661;53.152;5.846;2023-04-06T12:29:09;11.40;59.30
52787;DHT22;38661;53.152;5.846;2023-04-06T12:31:36;11.30;59.60
52787;DHT22;38661;53.152;5.846;2023-04-06T12:34:03;11.30;60.60
52787;DHT22;38661;53.152;5.846;2023-04-06T12:36:29;11.30;60.90
52787;DHT22;38661;53.152;5.846;2023-04-06T12:38:56;11.30;61.00
52787;DHT22;38661;53.152;5.846;2023-04-06T12:41:22;11.30;62.70
52787;DHT22;38661;53.152;5.846;2023-04-06T12:43:48;11.10;64.30
52787;DHT22;38661;53.152;5.846;2023-04-06T12:46:15;11.20;65.40
52787;DHT22;38661;53.152;5.846;2023-04-06T12:48:44;11.20;65.70
52787;DHT22;38661;53.152;5.846;2023-04-06T12:51:18;11.20;66.80
52787;DHT22;38661;53.152;5.846;2023-04-06T12:53:43;11.10;67.80
52787;DHT22;38661;53.152;5.846;2023-04-06T12:56:16;11.10;67.70
52787;DHT22;38661;53.152;5.846;2023-04-06T12:58:43;11.10;68.60
52787;DHT22;38661;53.152;5.846;2023-04-06T13:01:10;11.00;67.60
52787;DHT22;38661;53.152;5.846;2023-04-06T13:03:39;10.80;67.70
52787;DHT22;38661;53.152;5.846;2023-04-06T13:06:05;10.80;67.50
52787;DHT22;38661;53.152;5.846;2023-04-06T13:08:31;10.70;68.20
52787;DHT22;38661;53.152;5.846;2023-04-06T13:10:57;10.70;69.00
52787;DHT22;38661;53.152;5.846;2023-04-06T13:13:24;10.50;69.90
52787;DHT22;38661;53.152;5.846;2023-04-06T13:15:51;10.50;69.80
52787;DHT22;38661;53.152;5.846;2023-04-06T13:18:17;10.40;69.70
52787;DHT22;38661;53.152;5.846;2023-04-06T13:20:43;10.20;69.90
52787;DHT22;38661;53.152;5.846;2023-04-06T13:23:08;10.10;70.10
52787;DHT22;38661;53.152;5.846;2023-04-06T13:25:35;10.00;70.70
52787;DHT22;38661;53.152;5.846;2023-04-06T13:28:00;10.00;71.70
52787;DHT22;38661;53.152;5.846;2023-04-06T13:30:26;9.90;74.00
52787;DHT22;38661;53.152;5.846;2023-04-06T13:32:52;9.80;73.30
52787;DHT22;38661;53.152;5.846;2023-04-06T13:35:18;9.60;75.10
52787;DHT22;38661;53.152;5.846;2023-04-06T13:37:44;9.60;76.90
52787;DHT22;38661;53.152;5.846;2023-04-06T13:40:10;9.60;76.60
52787;DHT22;38661;53.152;5.846;2023-04-06T13:42:37;9.50;77.40
52787;DHT22;38661;53.152;5.846;2023-04-06T13:45:06;9.50;77.70
52787;DHT22;38661;53.152;5.846;2023-04-06T13:47:32;9.30;77.80
52787;DHT22;38661;53.152;5.846;2023-04-06T13:49:57;9.20;79.50
52787;DHT22;38661;53.152;5.846;2023-04-06T13:52:23;9.20;79.80
52787;DHT22;38661;53.152;5.846;2023-04-06T13:54:49;9.20;79.50
52787;DHT22;38661;53.152;5.846;2023-04-06T13:57:16;9.10;81.30
52787;DHT22;38661;53.152;5.846;2023-04-06T13:59:42;9.10;79.80
52787;DHT22;38661;53.152;5.846;2023-04-06T14:02:09;9.10;81.40
52787;DHT22;38661;53.152;5.846;2023-04-06T14:04:36;9.00;81.50
52787;DHT22;38661;53.152;5.846;2023-04-06T14:07:02;9.00;82.60
52787;DHT22;38661;53.152;5.846;2023-04-06T14:09:29;9.00;84.30
52787;DHT22;38661;53.152;5.846;2023-04-06T14:11:55;9.00;82.30
52787;DHT22;38661;53.152;5.846;2023-04-06T14:14:22;9.00;82.60
52787;DHT22;38661;53.152;5.846;2023-04-06T14:16:48;8.90;83.60
52787;DHT22;38661;53.152;5.846;2023-04-06T14:19:15;8.90;82.90
52787;DHT22;38661;53.152;5.846;2023-04-06T14:21:43;8.90;83.30
52787;DHT22;38661;53.152;5.846;2023-04-06T14:24:09;8.80;82.70
52787;DHT22;38661;53.152;5.846;2023-04-06T14:26:35;8.80;83.70
52787;DHT22;38661;53.152;5.846;2023-04-06T14:29:01;8.80;85.50
52787;DHT22;38661;53.152;5.846;2023-04-06T14:31:28;8.70;85.20
52787;DHT22;38661;53.152;5.846;2023-04-06T14:33:54;8.70;85.50
52787;DHT22;38661;53.152;5.846;2023-04-06T14:36:20;8.60;86.70
52787;DHT22;38661;53.152;5.846;2023-04-06T14:38:46;8.60;86.80
52787;DHT22;38661;53.152;5.846;2023-04-06T14:41:18;8.60;85.70
52787;DHT22;38661;53.152;5.846;2023-04-06T14:43:45;8.60;85.60
52787;DHT22;38661;53.152;5.846;2023-04-06T14:46:11;8.60;86.70
52787;DHT22;38661;53.152;5.846;2023-04-06T14:48:37;8.50;85.60
52787;DHT22;38661;53.152;5.846;2023-04-06T14:51:03;8.50;86.10
52787;DHT22;38661;53.152;5.846;2023-04-06T14:53:29;8.50;87.30
52787;DHT22;38661;53.152;5.846;2023-04-06T14:55:55;8.50;87.20
52787;DHT22;38661;53.152;5.846;2023-04-06T14:58:22;8.40;87.00
52787;DHT22;38661;53.152;5.846;2023-04-06T15:00:48;8.40;86.60
52787;DHT22;38661;53.152;5.846;2023-04-06T15:03:14;8.40;86.20
52787;DHT22;38661;53.152;5.846;2023-04-06T15:05:41;8.30;86.60
52787;DHT22;38661;53.152;5.846;2023-04-06T15:08:07;8.20;86.90
52787;DHT22;38661;53.152;5.846;2023-04-06T15:10:35;8.20;88.00
52787;DHT22;38661;53.152;5.846;2023-04-06T15:13:01;8.30;88.30
52787;DHT22;38661;53.152;5.846;2023-04-06T15:15:27;8.20;88.90
52787;DHT22;38661;53.152;5.846;2023-04-06T15:17:53;8.20;87.90
52787;DHT22;38661;53.152;5.846;2023-04-06T15:20:19;8.20;87.80
52787;DHT22;38661;53.152;5.846;2023-04-06T15:22:44;8.20;87.10
52787;DHT22;38661;53.152;5.846;2023-04-06T15:25:10;8.20;87.70
52787;DHT22;38661;53.152;5.846;2023-04-06T15:27:36;8.20;87.70
52787;DHT22;38661;53.152;5.846;2023-04-06T15:30:02;8.20;87.00
52787;DHT22;38661;53.152;5.846;2023-04-06T15:32:28;8.20;87.20
52787;DHT22;38661;53.152;5.846;2023-04-06T15:34:57;8.10;87.50
52787;DHT22;38661;53.152;5.846;2023-04-06T15:37:22;8.10;87.50
52787;DHT22;38661;53.152;5.846;2023-04-06T15:39:48;8.10;88.00
52787;DHT22;38661;53.152;5.846;2023-04-06T15:42:14;8.00;87.50